PDT,Max TemperatureF,Mean TemperatureF,Min TemperatureF,Max Dew PointF,MeanDew PointF,Min DewpointF,Max Humidity, Mean Humidity, Min Humidity, Max Sea Level PressureIn, Mean Sea Level PressureIn, Min Sea Level PressureIn, Max VisibilityMiles, Mean VisibilityMiles, Min VisibilityMiles, Max Wind SpeedMPH, Mean Wind SpeedMPH, Max Gust SpeedMPH,PrecipitationIn, CloudCover, Events, WindDirDegrees
2012-10-1,73,58,43,48,41,36,71,51,24,30.29,30.11,29.89,15,15,15,17,6,23,0.00,5,Rain,191
2012-10-2,66,54,42,41,28,19,71,41,14,30.38,30.15,29.93,15,15,15,25,11,31,0.00,3,,359
2012-10-3,59,46,34,32,27,19,65,44,23,30.56,30.47,30.40,15,15,15,12,8,,0.00,0,,5
2012-10-4,61,46,30,34,25,19,60,44,21,30.46,30.40,30.33,15,15,15,13,8,17,0.00,0,,1
2012-10-5,60,45,30,36,27,19,65,46,24,30.50,30.42,30.35,15,15,15,10,7,,0.00,0,,357
2012-10-6,61,46,32,37,31,23,70,52,29,30.44,30.35,30.25,15,15,15,13,7,,0.00,0,,358
2012-10-7,63,46,30,43,35,27,87,67,42,30.25,30.14,30.01,15,15,15,10,3,,0.00,2,,2
2012-10-8,65,49,33,45,39,30,87,67,36,30.04,29.99,29.92,15,15,15,10,4,,0.00,3,,355
2012-10-9,65,51,37,46,38,32,81,60,32,30.13,30.05,29.99,15,15,15,9,6,,0.00,1,,1
2012-10-10,65,49,33,46,38,32,93,68,35,30.01,29.95,29.88,15,15,15,9,2,,0.00,0,,350
2012-10-11,63,48,34,43,39,32,87,65,42,30.04,29.92,29.76,15,15,15,8,5,,0.00,2,,1
2012-10-12,66,54,42,45,41,37,81,54,34,29.85,29.75,29.68,15,15,15,21,8,21,0.00,7,Rain,172
2012-10-13,59,55,50,50,47,43,94,74,52,30.09,30.01,29.86,20,15,15,16,6,20,0.01,8,Rain,173
2012-10-14,64,56,49,52,50,48,100,70,55,30.05,29.89,29.78,15,15,15,28,13,36,0.01,8,Rain,191
2012-10-15,67,58,48,52,49,45,100,66,37,29.84,29.69,29.41,15,15,12,26,15,37,0.04,6,Rain,177
2012-10-16,60,55,50,54,37,26,94,52,18,30.06,29.67,29.37,15,15,10,21,9,37,0.24,5,Rain-Thunderstorm,283
2012-10-17,58,44,29,36,31,27,81,55,24,30.27,30.21,30.09,15,15,15,10,4,,0.00,4,,33
2012-10-18,60,51,42,39,35,30,66,45,25,30.21,30.05,29.77,15,15,15,26,17,36,0.02,7,Rain,181
2012-10-19,61,56,51,46,38,25,67,51,23,29.75,29.62,29.53,15,15,15,28,15,39,0.01,7,Rain,185
2012-10-20,54,46,35,32,23,18,61,39,16,29.82,29.72,29.57,15,15,15,15,7,28,0.00,6,,312
2012-10-21,46,36,27,32,28,23,87,68,50,29.95,29.91,29.83,15,15,15,15,4,,0.04,6,Snow,1
2012-10-22,46,38,30,34,30,28,87,66,40,29.94,29.78,29.63,15,15,15,16,8,22,0.03,7,Rain,345
2012-10-23,42,40,37,37,35,34,93,85,70,30.01,29.87,29.67,15,15,15,7,2,,0.28,8,Rain,359
2012-10-24,41,40,37,37,35,32,93,84,63,30.22,30.10,30.02,15,14,10,7,4,,0.08,8,Rain,345
2012-10-25,48,42,35,37,36,33,93,81,58,30.44,30.36,30.23,15,15,10,6,4,,0.00,7,Rain,6
2012-10-26,43,38,34,39,36,34,87,80,70,30.40,30.24,30.09,15,15,12,20,8,24,0.08,8,Rain,187
2012-10-27,44,41,38,40,37,36,87,84,75,30.08,30.00,29.83,15,14,10,22,14,32,0.20,8,Rain,176
2012-10-28,53,46,40,43,42,39,87,77,61,29.92,29.87,29.79,15,15,15,24,16,31,0.04,7,Rain,172
2012-10-29,54,49,44,49,46,43,100,91,80,29.95,29.85,29.78,15,13,5,16,6,23,0.43,7,Rain,126
2012-10-30,54,50,45,50,46,43,100,84,62,29.95,29.90,29.87,15,13,10,18,10,25,0.24,7,Rain,161
2012-10-31,50,48,47,48,47,46,100,94,83,29.90,29.80,29.73,15,12,7,8,4,,0.28,8,Rain,347